Time;durP1;ratioP1;P1;durP2;ratioP2;P2;SDS_P1;SDS_P2;PMS_P1;PMS_P2;Temp;Humidity;BMP_temperature;BMP_pressure;BME280_temperature;BME280_humidity;BME280_pressure;Samples;Min_cycle;Max_cycle;Signal;HPM_P1;HPM_P2
2023/03/02 00:01:47;;;;;;;18.87;10.67;;;;;-1.90;101741.00;;;;9800113;30;20216;-80
2023/03/02 00:06:51;;;;;;;18.30;9.27;;;;;-2.00;101752.00;;;;9784611;30;20284;-79
2023/03/02 00:11:53;;;;;;;14.73;8.93;;;;;-2.00;101752.00;;;;9788203;30;20217;-80
2023/03/02 00:16:56;;;;;;;17.43;9.80;;;;;-2.00;101759.00;;;;9785274;30;20590;-79
2023/03/02 00:21:58;;;;;;;16.33;9.03;;;;;-2.10;101745.00;;;;9805339;30;20213;-79
2023/03/02 00:27:00;;;;;;;19.57;9.60;;;;;-2.10;101747.00;;;;9814769;30;20688;-79
2023/03/02 00:32:05;;;;;;;18.37;8.37;;;;;-2.20;101735.00;;;;9803155;30;20706;-79
2023/03/02 00:37:07;;;;;;;17.80;9.23;;;;;-2.20;101736.00;;;;9799956;30;20316;-79
2023/03/02 00:42:09;;;;;;;16.20;9.27;;;;;-2.30;101735.00;;;;9786172;30;20687;-80
2023/03/02 00:47:11;;;;;;;19.17;9.73;;;;;-2.30;101726.00;;;;9784753;30;20196;-80
2023/03/02 00:52:15;;;;;;;16.10;8.03;;;;;-2.30;101731.00;;;;9778409;30;20650;-80
2023/03/02 00:57:17;;;;;;;18.47;8.57;;;;;-2.30;101729.00;;;;9781849;30;20248;-80
2023/03/02 01:02:20;;;;;;;21.73;9.83;;;;;-2.40;101726.00;;;;9799324;30;20276;-80
2023/03/02 01:07:25;;;;;;;20.20;8.23;;;;;-2.40;101732.00;;;;9803119;30;20860;-80
2023/03/02 01:12:27;;;;;;;15.40;8.30;;;;;-2.40;101738.00;;;;9765648;30;20298;-80
2023/03/02 01:17:29;;;;;;;20.57;7.90;;;;;-2.30;101718.00;;;;9761971;30;20233;-80
2023/03/02 01:22:30;;;;;;;13.97;7.97;;;;;-2.30;101712.00;;;;9774552;30;20244;-80
2023/03/02 01:27:33;;;;;;;14.40;7.20;;;;;-2.30;101725.00;;;;9763814;30;20202;-80
2023/03/02 01:32:35;;;;;;;12.27;6.80;;;;;-2.40;101704.00;;;;9769683;30;20217;-80
2023/03/02 01:37:37;;;;;;;14.80;7.80;;;;;-2.50;101704.00;;;;9772798;30;20248;-80
2023/03/02 01:42:51;;;;;;;15.93;7.07;;;;;-2.60;101692.00;;;;9776731;30;20742;-80
2023/03/02 01:47:53;;;;;;;12.97;6.53;;;;;-2.60;101686.00;;;;9798973;30;20227;-80
2023/03/02 01:52:55;;;;;;;11.70;7.93;;;;;-2.60;101682.00;;;;9767725;30;20309;-80
2023/03/02 01:58:01;;;;;;;12.97;7.40;;;;;-2.60;101676.00;;;;9776016;30;20229;-80
2023/03/02 02:03:25;;;;;;;11.77;6.57;;;;;-2.60;101671.00;;;;9787966;30;20198;-80
2023/03/02 02:08:27;;;;;;;12.77;7.00;;;;;-2.60;101667.00;;;;9783756;30;20288;-79
2023/03/02 02:13:29;;;;;;;12.00;7.17;;;;;-2.60;101660.00;;;;9795757;30;20241;-81
2023/03/02 02:18:32;;;;;;;12.43;7.50;;;;;-2.70;101653.00;;;;9791781;30;20229;-80
2023/03/02 02:24:19;;;;;;;18.33;8.07;;;;;-2.70;101654.00;;;;9796268;30;20197;-80
2023/03/02 02:29:29;;;;;;;12.37;6.67;;;;;-2.70;101636.00;;;;9787070;30;20205;-80
2023/03/02 02:34:38;;;;;;;13.17;6.43;;;;;-2.70;101645.00;;;;9786102;30;20649;-81
2023/03/02 02:39:45;;;;;;;13.43;6.87;;;;;-2.70;101639.00;;;;9802307;30;20224;-81
2023/03/02 02:44:49;;;;;;;13.27;6.93;;;;;-2.70;101645.00;;;;9795063;30;20200;-80
2023/03/02 02:49:53;;;;;;;12.53;6.20;;;;;-2.80;101650.00;;;;9784542;30;20212;-80
2023/03/02 02:54:57;;;;;;;13.93;7.53;;;;;-2.80;101642.00;;;;9811548;30;20526;-80
2023/03/02 03:00:00;;;;;;;10.20;6.13;;;;;-2.90;101645.00;;;;9801082;30;20220;-80
2023/03/02 03:05:09;;;;;;;10.17;6.57;;;;;-2.90;101643.00;;;;9797294;30;20233;-80
2023/03/02 03:10:21;;;;;;;13.10;6.00;;;;;-2.90;101640.00;;;;9810884;30;20543;-81
2023/03/02 03:15:23;;;;;;;9.93;6.00;;;;;-2.90;101635.00;;;;9815456;30;20299;-80
2023/03/02 03:20:26;;;;;;;11.57;6.53;;;;;-3.00;101639.00;;;;9794354;30;20247;-80
2023/03/02 03:25:30;;;;;;;17.77;7.43;;;;;-3.00;101639.00;;;;9793910;30;20201;-80
2023/03/02 03:30:34;;;;;;;13.53;6.10;;;;;-3.00;101635.00;;;;9810408;30;20265;-80
2023/03/02 03:35:37;;;;;;;11.57;6.53;;;;;-3.00;101636.00;;;;9790112;30;20284;-80
2023/03/02 03:40:39;;;;;;;12.17;6.83;;;;;-3.10;101632.00;;;;9786368;30;20274;-80
2023/03/02 03:45:41;;;;;;;11.20;6.50;;;;;-3.10;101630.00;;;;9796145;30;20262;-80
2023/03/02 03:50:44;;;;;;;15.73;7.20;;;;;-3.20;101632.00;;;;9805326;30;20198;-79
2023/03/02 03:55:46;;;;;;;12.87;6.80;;;;;-3.20;101627.00;;;;9782388;30;20239;-80
2023/03/02 04:00:49;;;;;;;15.27;6.97;;;;;-3.20;101632.00;;;;9780665;30;20280;-79
2023/03/02 04:05:52;;;;;;;19.47;6.33;;;;;-3.20;101635.00;;;;9786514;30;20205;-80
2023/03/02 04:10:54;;;;;;;9.73;6.13;;;;;-3.20;101632.00;;;;9786456;30;20233;-79
2023/03/02 04:15:56;;;;;;;13.93;6.57;;;;;-3.20;101640.00;;;;9801772;30;20217;-80
2023/03/02 04:20:59;;;;;;;12.83;6.43;;;;;-3.20;101651.00;;;;9801946;30;20223;-80
2023/03/02 04:26:04;;;;;;;13.20;7.23;;;;;-3.20;101647.00;;;;9800985;30;20193;-80
2023/03/02 04:31:06;;;;;;;10.43;5.53;;;;;-3.30;101648.00;;;;9772999;30;20198;-80
2023/03/02 04:36:09;;;;;;;11.60;6.27;;;;;-3.30;101650.00;;;;9774753;30;20205;-79
2023/03/02 04:41:12;;;;;;;12.37;5.63;;;;;-3.40;101650.00;;;;9770624;30;20216;-79
2023/03/02 04:46:18;;;;;;;11.40;6.47;;;;;-3.40;101653.00;;;;9811295;30;20201;-80
2023/03/02 04:51:26;;;;;;;15.73;7.33;;;;;-3.50;101649.00;;;;9774298;30;20272;-80
2023/03/02 04:56:28;;;;;;;13.03;6.33;;;;;-3.50;101653.00;;;;9797985;30;20216;-80
2023/03/02 05:01:31;;;;;;;9.87;5.97;;;;;-3.50;101639.00;;;;9799412;30;20218;-80
2023/03/02 05:06:33;;;;;;;11.63;6.50;;;;;-3.50;101649.00;;;;9768431;30;20251;-81
2023/03/02 05:11:36;;;;;;;9.83;6.13;;;;;-3.50;101650.00;;;;9764109;30;20735;-80
2023/03/02 05:16:40;;;;;;;10.03;5.30;;;;;-3.50;101663.00;;;;9738658;30;20214;-81
2023/03/02 05:21:42;;;;;;;11.17;5.60;;;;;-3.50;101663.00;;;;9784087;30;20756;-80
2023/03/02 05:26:44;;;;;;;10.27;6.37;;;;;-3.60;101664.00;;;;9752098;30;20193;-80
2023/03/02 05:31:47;;;;;;;12.73;5.87;;;;;-3.50;101657.00;;;;9737991;30;20231;-81
2023/03/02 05:36:49;;;;;;;9.13;5.17;;;;;-3.50;101661.00;;;;9768293;30;20233;-80
2023/03/02 05:41:51;;;;;;;11.20;6.10;;;;;-3.50;101671.00;;;;9745151;30;20226;-79
2023/03/02 05:46:53;;;;;;;11.53;6.50;;;;;-3.60;101664.00;;;;9733768;30;20214;-80
2023/03/02 05:51:55;;;;;;;11.67;5.90;;;;;-3.60;101662.00;;;;9775387;30;20213;-80
2023/03/02 05:56:57;;;;;;;11.90;5.97;;;;;-3.60;101669.00;;;;9743542;30;20273;-80
2023/03/02 06:01:59;;;;;;;13.63;5.50;;;;;-3.60;101673.00;;;;9780685;30;20590;-80
2023/03/02 06:07:01;;;;;;;11.63;5.97;;;;;-3.70;101660.00;;;;9762477;30;20234;-80
2023/03/02 06:12:04;;;;;;;10.53;5.33;;;;;-3.70;101666.00;;;;9787790;30;20292;-79
2023/03/02 06:17:06;;;;;;;8.50;4.93;;;;;-3.70;101670.00;;;;9774482;30;20789;-79
2023/03/02 06:22:08;;;;;;;11.77;5.90;;;;;-3.70;101666.00;;;;9786231;30;20205;-79
2023/03/02 06:27:11;;;;;;;9.43;5.60;;;;;-3.70;101669.00;;;;9801737;30;20562;-81
2023/03/02 06:32:17;;;;;;;13.67;5.77;;;;;-3.70;101673.00;;;;9789395;30;20215;-81
2023/03/02 06:37:19;;;;;;;11.17;5.63;;;;;-3.60;101675.00;;;;9790937;30;20239;-80
2023/03/02 06:42:23;;;;;;;11.87;6.20;;;;;-3.50;101676.00;;;;9781699;30;20251;-80
2023/03/02 06:47:25;;;;;;;10.67;5.90;;;;;-3.40;101677.00;;;;9800463;30;20220;-81
2023/03/02 06:52:27;;;;;;;11.07;6.20;;;;;-3.20;101682.00;;;;9771043;30;20205;-81
2023/03/02 06:57:32;;;;;;;10.07;5.70;;;;;-3.10;101674.00;;;;9771516;30;20229;-80
2023/03/02 07:02:35;;;;;;;20.83;6.70;;;;;-2.90;101678.00;;;;9819074;30;20296;-80
2023/03/02 07:07:37;;;;;;;15.73;6.17;;;;;-2.70;101675.00;;;;9765557;30;20233;-80
2023/03/02 07:12:40;;;;;;;13.17;7.70;;;;;-2.40;101670.00;;;;9805111;30;20209;-81
2023/03/02 07:17:43;;;;;;;15.53;6.57;;;;;-2.10;101677.00;;;;9778627;30;20732;-80
2023/03/02 07:22:46;;;;;;;15.90;7.20;;;;;-1.70;101683.00;;;;9791561;30;20221;-81
2023/03/02 07:27:48;;;;;;;12.73;6.63;;;;;-1.40;101681.00;;;;9808434;30;20274;-80
2023/03/02 07:32:51;;;;;;;13.73;7.67;;;;;-1.00;101677.00;;;;9778184;30;20209;-80
2023/03/02 07:37:53;;;;;;;16.07;8.17;;;;;-0.70;101681.00;;;;9777005;30;20362;-80
2023/03/02 07:42:55;;;;;;;14.70;8.50;;;;;-0.30;101683.00;;;;9794284;30;20291;-80
2023/03/02 07:47:57;;;;;;;16.70;8.40;;;;;0.00;101687.00;;;;9798144;30;20296;-81
2023/03/02 07:53:00;;;;;;;19.17;9.90;;;;;0.30;101691.00;;;;9790612;30;20214;-80
2023/03/02 07:58:02;;;;;;;14.67;8.43;;;;;0.60;101698.00;;;;9781645;30;20348;-80
2023/03/02 08:03:04;;;;;;;14.03;8.53;;;;;0.90;101695.00;;;;9798914;30;20228;-79
2023/03/02 08:08:06;;;;;;;18.77;9.20;;;;;1.20;101692.00;;;;9780775;30;20296;-80
2023/03/02 08:13:08;;;;;;;16.67;8.93;;;;;1.50;101694.00;;;;9808940;30;20212;-80
2023/03/02 08:18:10;;;;;;;16.37;9.30;;;;;1.80;101689.00;;;;9780770;30;20228;-80
2023/03/02 08:23:12;;;;;;;15.43;8.90;;;;;2.10;101692.00;;;;9778206;30;20239;-80
2023/03/02 08:28:15;;;;;;;14.93;8.07;;;;;2.40;101697.00;;;;9786653;30;20198;-80
2023/03/02 08:33:17;;;;;;;17.37;9.07;;;;;3.00;101696.00;;;;9789455;30;20225;-80
2023/03/02 08:38:19;;;;;;;18.07;9.10;;;;;3.60;101699.00;;;;9785566;30;20445;-80
2023/03/02 08:43:24;;;;;;;16.57;9.10;;;;;4.10;101697.00;;;;9789620;30;20621;-79
2023/03/02 08:48:27;;;;;;;15.23;9.30;;;;;4.50;101694.00;;;;9773632;30;20197;-79
2023/03/02 08:53:31;;;;;;;13.67;8.37;;;;;4.80;101697.00;;;;9773780;30;20241;-78
2023/03/02 08:58:33;;;;;;;15.17;9.87;;;;;5.20;101690.00;;;;9785731;30;20332;-79
2023/03/02 09:03:35;;;;;;;16.00;8.97;;;;;5.40;101683.00;;;;9768090;30;20312;-79
2023/03/02 09:08:37;;;;;;;18.40;9.00;;;;;5.60;101673.00;;;;9798245;30;20260;-79
2023/03/02 09:13:40;;;;;;;14.30;9.30;;;;;5.90;101677.00;;;;9790053;30;20205;-80
2023/03/02 09:18:42;;;;;;;18.07;10.10;;;;;6.20;101677.00;;;;9767830;30;20229;-79
2023/03/02 09:23:44;;;;;;;15.80;9.43;;;;;6.40;101673.00;;;;9784370;30;20685;-79
2023/03/02 09:28:46;;;;;;;14.77;9.23;;;;;6.60;101677.00;;;;9807143;30;20199;-79
2023/03/02 09:33:49;;;;;;;17.77;10.57;;;;;6.90;101682.00;;;;9786529;30;20212;-78
2023/03/02 09:38:53;;;;;;;16.90;10.13;;;;;7.10;101675.00;;;;9784786;30;20581;-79
2023/03/02 09:44:05;;;;;;;18.00;10.47;;;;;7.40;101672.00;;;;9803849;30;20266;-79
2023/03/02 09:49:31;;;;;;;19.97;11.80;;;;;7.60;101685.00;;;;9817701;30;20208;-79
2023/03/02 09:54:36;;;;;;;17.33;10.83;;;;;8.00;101675.00;;;;9787743;30;20337;-79
2023/03/02 09:59:44;;;;;;;17.60;10.83;;;;;8.10;101677.00;;;;9795891;30;20229;-79
2023/03/02 10:04:50;;;;;;;19.33;11.27;;;;;8.30;101677.00;;;;9789804;30;20221;-79
2023/03/02 10:09:54;;;;;;;16.40;10.90;;;;;8.50;101676.00;;;;9831836;30;20252;-77
2023/03/02 10:15:09;;;;;;;19.20;10.73;;;;;8.90;101673.00;;;;9801402;30;20566;-76
2023/03/02 10:20:26;;;;;;;21.77;11.70;;;;;9.20;101671.00;;;;9802347;30;20302;-77
2023/03/02 10:25:47;;;;;;;19.73;11.40;;;;;9.30;101672.00;;;;9795009;30;20561;-76
2023/03/02 10:30:56;;;;;;;20.20;12.17;;;;;9.40;101666.00;;;;9793237;30;20232;-77
2023/03/02 10:36:00;;;;;;;19.73;12.07;;;;;9.60;101666.00;;;;9797999;30;20228;-77
2023/03/02 10:41:06;;;;;;;19.57;11.93;;;;;9.80;101665.00;;;;9807271;30;20251;-76
2023/03/02 10:46:10;;;;;;;17.57;11.20;;;;;10.00;101657.00;;;;9779749;30;20622;-77
2023/03/02 10:51:27;;;;;;;20.93;12.03;;;;;10.40;101657.00;;;;9797937;30;20237;-77
2023/03/02 10:56:30;;;;;;;18.33;11.67;;;;;10.50;101650.00;;;;9814655;30;20599;-77
2023/03/02 11:01:33;;;;;;;19.53;11.53;;;;;10.70;101655.00;;;;9787546;30;20489;-77
2023/03/02 11:06:35;;;;;;;18.90;12.20;;;;;11.10;101653.00;;;;9778752;30;20292;-78
2023/03/02 11:11:37;;;;;;;19.27;11.43;;;;;11.30;101644.00;;;;9814665;30;20236;-77
2023/03/02 11:16:39;;;;;;;19.33;12.40;;;;;11.40;101646.00;;;;9793767;30;20287;-77
2023/03/02 11:21:56;;;;;;;20.93;12.70;;;;;11.30;101652.00;;;;9800772;30;20217;-77
2023/03/02 11:27:03;;;;;;;20.40;12.03;;;;;11.50;101644.00;;;;9825496;30;20205;-78
2023/03/02 11:32:44;;;;;;;20.87;12.57;;;;;11.70;101641.00;;;;9764348;30;20260;-78
2023/03/02 11:37:52;;;;;;;20.53;11.90;;;;;12.00;101649.00;;;;9771750;30;20725;-77
2023/03/02 11:42:57;;;;;;;18.77;12.37;;;;;12.40;101637.00;;;;9804384;30;20726;-77
2023/03/02 11:48:14;;;;;;;20.27;12.80;;;;;12.50;101640.00;;;;9776688;30;20208;-77
2023/03/02 11:59:24;;;;;;;18.73;11.90;;;;;12.60;101641.00;;;;10634735;24;20387;-78
2023/03/02 12:04:37;;;;;;;19.47;11.93;;;;;12.60;101628.00;;;;9495951;30;20227;-77
2023/03/02 12:09:39;;;;;;;22.07;12.23;;;;;12.80;101638.00;;;;9532331;30;20224;-77
2023/03/02 12:14:42;;;;;;;19.23;12.13;;;;;12.90;101621.00;;;;9520989;30;20219;-79
2023/03/02 12:19:45;;;;;;;21.17;11.90;;;;;12.80;101609.00;;;;9519642;30;21377;-78
2023/03/02 12:25:21;;;;;;;19.13;11.83;;;;;13.00;101621.00;;;;9535862;30;20220;-77
2023/03/02 12:30:27;;;;;;;18.43;11.30;;;;;13.20;101618.00;;;;9537848;30;20220;-79
2023/03/02 12:35:32;;;;;;;22.47;11.23;;;;;13.00;101616.00;;;;9495962;30;20330;-78
2023/03/02 12:41:05;;;;;;;21.07;12.40;;;;;12.90;101608.00;;;;9536250;30;20267;-78
2023/03/02 12:46:19;;;;;;;23.57;12.47;;;;;13.20;101607.00;;;;9536755;30;20313;-77
2023/03/02 12:51:25;;;;;;;23.70;12.13;;;;;13.50;101591.00;;;;9560206;30;20800;-79
2023/03/02 12:56:28;;;;;;;19.67;12.50;;;;;13.50;101586.00;;;;9569950;30;20338;-78
2023/03/02 13:01:32;;;;;;;21.43;12.87;;;;;13.60;101583.00;;;;9546031;30;20244;-79
2023/03/02 13:06:37;;;;;;;19.53;12.03;;;;;13.90;101575.00;;;;9525611;30;21403;-78
2023/03/02 13:11:41;;;;;;;19.77;12.63;;;;;13.90;101584.00;;;;9542266;30;20220;-78
2023/03/02 13:16:53;;;;;;;62.83;15.68;;;;;14.00;101571.00;;;;9544764;30;20295;-78
2023/03/02 13:21:59;;;;;;;21.75;15.10;;;;;14.10;101569.00;;;;9560131;30;20232;-79
2023/03/02 13:27:16;;;;;;;21.38;13.38;;;;;13.70;101570.00;;;;9559260;30;20223;-80
2023/03/02 13:32:20;;;;;;;23.95;14.55;;;;;13.70;101557.00;;;;9560534;30;20216;-79
2023/03/02 13:37:33;;;;;;;20.63;13.20;;;;;13.60;101546.00;;;;9573562;30;20216;-79
2023/03/02 13:42:39;;;;;;;19.83;13.00;;;;;13.90;101553.00;;;;9572870;30;20346;-80
2023/03/02 13:47:43;;;;;;;20.77;12.37;;;;;14.00;101550.00;;;;9556649;30;20208;-79
2023/03/02 13:52:45;;;;;;;19.97;13.10;;;;;13.90;101550.00;;;;9545486;30;20219;-78
2023/03/02 13:57:49;;;;;;;22.63;12.27;;;;;14.30;101543.00;;;;9535756;30;20305;-78
2023/03/02 14:02:51;;;;;;;19.37;13.13;;;;;14.40;101536.00;;;;9549964;30;20303;-80
2023/03/02 14:07:53;;;;;;;16.73;12.03;;;;;15.20;101521.00;;;;9574049;30;20217;-78
2023/03/02 14:13:04;;;;;;;18.93;12.50;;;;;15.50;101506.00;;;;9574385;30;20246;-78
2023/03/02 14:18:25;;;;;;;21.17;13.17;;;;;16.60;101503.00;;;;9544739;30;20247;-79
2023/03/02 14:23:27;;;;;;;18.43;12.90;;;;;17.60;101489.00;;;;9561745;30;20716;-78
2023/03/02 14:28:34;;;;;;;19.13;12.67;;;;;16.10;101509.00;;;;9580564;30;21893;-79
2023/03/02 14:33:36;;;;;;;16.53;12.50;;;;;15.90;101481.00;;;;9564988;30;20212;-79
2023/03/02 14:38:39;;;;;;;18.73;12.73;;;;;15.50;101479.00;;;;9565678;30;20221;-78
2023/03/02 14:43:41;;;;;;;17.33;12.13;;;;;16.50;101454.00;;;;9550291;30;20216;-78
2023/03/02 14:48:43;;;;;;;20.73;12.90;;;;;16.60;101463.00;;;;9561499;30;20386;-78
2023/03/02 14:53:48;;;;;;;21.17;11.40;;;;;16.90;101445.00;;;;9547176;30;20241;-78
2023/03/02 14:58:52;;;;;;;19.57;12.37;;;;;18.00;101443.00;;;;9550454;30;20247;-79
2023/03/02 15:03:53;;;;;;;16.17;11.63;;;;;17.50;101446.00;;;;9565782;30;20342;-78
2023/03/02 15:08:58;;;;;;;17.57;12.60;;;;;19.10;101420.00;;;;9581301;30;20200;-79
2023/03/02 15:14:00;;;;;;;20.13;13.40;;;;;19.20;101451.00;;;;9565046;30;21680;-79
2023/03/02 15:19:02;;;;;;;18.77;12.43;;;;;19.60;101409.00;;;;9562011;30;20339;-79
2023/03/02 15:24:04;;;;;;;16.23;11.55;;;;;15.30;101448.00;;;;9633313;30;20640;-79
2023/03/02 15:29:07;;;;;;;18.73;12.57;;;;;16.00;101446.00;;;;9626351;30;20204;-77
2023/03/02 15:34:10;;;;;;;17.60;11.03;;;;;17.10;101410.00;;;;9621979;30;20213;-78
2023/03/02 15:39:13;;;;;;;16.10;11.10;;;;;14.30;101486.00;;;;9646396;30;20252;-79
2023/03/02 15:44:21;;;;;;;19.83;10.80;;;;;12.40;101484.00;;;;9647251;30;20204;-78
2023/03/02 15:49:26;;;;;;;20.67;11.47;;;;;11.60;101479.00;;;;9662365;30;20208;-77
2023/03/02 15:54:28;;;;;;;17.30;11.33;;;;;11.10;101488.00;;;;9666895;30;20236;-78
2023/03/02 15:59:31;;;;;;;22.37;11.63;;;;;10.70;101486.00;;;;9646443;30;20236;-78
2023/03/02 16:04:33;;;;;;;22.30;11.77;;;;;10.60;101485.00;;;;9629911;30;20204;-79
2023/03/02 16:09:35;;;;;;;18.40;10.50;;;;;10.30;101485.00;;;;9622835;30;20724;-79
2023/03/02 16:14:36;;;;;;;17.53;11.33;;;;;10.00;101491.00;;;;9640416;30;20243;-80
2023/03/02 16:19:39;;;;;;;18.23;11.30;;;;;9.80;101494.00;;;;9627439;30;20251;-79
2023/03/02 16:24:41;;;;;;;17.90;10.80;;;;;9.60;101489.00;;;;9628492;30;20217;-79
2023/03/02 16:29:43;;;;;;;23.00;12.20;;;;;9.50;101505.00;;;;9618550;30;20209;-79
2023/03/02 16:34:45;;;;;;;15.83;10.23;;;;;9.30;101515.00;;;;9617825;30;20587;-79
2023/03/02 16:39:47;;;;;;;18.70;10.93;;;;;9.10;101516.00;;;;9651096;30;20227;-79
2023/03/02 16:44:49;;;;;;;20.60;10.97;;;;;9.00;101532.00;;;;9635858;30;20295;-79
2023/03/02 16:49:51;;;;;;;17.87;10.60;;;;;8.80;101534.00;;;;9628921;30;20662;-80
2023/03/02 16:54:53;;;;;;;19.23;11.10;;;;;8.60;101534.00;;;;9620895;30;20220;-79
2023/03/02 16:59:55;;;;;;;15.90;10.20;;;;;8.40;101543.00;;;;9629103;30;20263;-79
2023/03/02 17:04:56;;;;;;;17.57;10.80;;;;;8.30;101552.00;;;;9651237;30;20227;-79
2023/03/02 17:09:58;;;;;;;16.97;11.00;;;;;8.00;101552.00;;;;9660436;30;20208;-78
2023/03/02 17:15:00;;;;;;;21.07;11.67;;;;;7.80;101560.00;;;;9632486;30;20196;-79
2023/03/02 17:20:03;;;;;;;19.70;11.80;;;;;7.50;101559.00;;;;9615160;30;20229;-79
2023/03/02 17:25:06;;;;;;;26.97;13.73;;;;;7.20;101570.00;;;;9631988;30;20219;-79
2023/03/02 17:30:11;;;;;;;19.60;12.17;;;;;7.00;101573.00;;;;9647043;30;20645;-79
2023/03/02 17:35:14;;;;;;;20.23;11.23;;;;;6.80;101579.00;;;;9673076;30;20219;-79
2023/03/02 17:40:16;;;;;;;18.47;10.20;;;;;6.70;101589.00;;;;9618328;30;20213;-79
2023/03/02 17:45:22;;;;;;;20.30;11.07;;;;;6.50;101599.00;;;;9623831;30;20204;-78
2023/03/02 17:50:26;;;;;;;25.83;11.97;;;;;6.20;101614.00;;;;9604888;30;20312;-77
2023/03/02 17:55:28;;;;;;;20.93;12.67;;;;;5.90;101615.00;;;;9614418;30;20216;-78
2023/03/02 18:00:30;;;;;;;19.03;11.73;;;;;5.60;101621.00;;;;9636725;30;20258;-81
2023/03/02 18:05:32;;;;;;;24.07;13.57;;;;;5.40;101634.00;;;;9626288;30;20213;-79
2023/03/02 18:10:34;;;;;;;22.77;13.53;;;;;5.20;101636.00;;;;9626276;30;20212;-80
2023/03/02 18:15:36;;;;;;;19.57;12.70;;;;;5.00;101641.00;;;;9648170;30;20291;-80
2023/03/02 18:20:38;;;;;;;22.53;12.37;;;;;4.80;101653.00;;;;9643401;30;20267;-80
2023/03/02 18:25:40;;;;;;;19.67;11.33;;;;;4.60;101657.00;;;;9640704;30;20220;-78
2023/03/02 18:30:42;;;;;;;22.83;11.60;;;;;4.50;101659.00;;;;9617463;30;20205;-77
2023/03/02 18:35:44;;;;;;;18.73;11.33;;;;;4.50;101676.00;;;;9640072;30;20803;-78
2023/03/02 18:40:46;;;;;;;22.53;11.97;;;;;4.70;101669.00;;;;9626382;30;20223;-77
2023/03/02 18:45:49;;;;;;;19.50;11.10;;;;;4.90;101668.00;;;;9599794;30;20236;-77
2023/03/02 18:50:52;;;;;;;20.40;10.93;;;;;5.00;101670.00;;;;9636845;30;20255;-78
2023/03/02 18:55:55;;;;;;;22.37;11.33;;;;;5.10;101680.00;;;;9626822;30;20211;-79
2023/03/02 19:00:59;;;;;;;17.63;10.83;;;;;5.10;101675.00;;;;9607109;30;20739;-78
2023/03/02 19:06:02;;;;;;;19.97;10.97;;;;;5.00;101672.00;;;;9623456;30;20213;-78
2023/03/02 19:11:05;;;;;;;18.20;11.00;;;;;5.00;101675.00;;;;9609177;30;20299;-78
2023/03/02 19:16:07;;;;;;;21.50;12.37;;;;;4.90;101684.00;;;;9645551;30;20263;-78
2023/03/02 19:21:09;;;;;;;22.37;12.90;;;;;5.00;101685.00;;;;9617748;30;20299;-78
2023/03/02 19:26:12;;;;;;;41.33;23.63;;;;;4.90;101695.00;;;;9598100;30;20209;-79
2023/03/02 19:31:14;;;;;;;21.43;12.27;;;;;5.00;101690.00;;;;9623271;30;20213;-79
2023/03/02 19:36:16;;;;;;;20.63;11.40;;;;;5.00;101692.00;;;;9609733;30;20387;-78
2023/03/02 19:41:19;;;;;;;21.60;12.47;;;;;4.80;101685.00;;;;9648957;30;20585;-78
2023/03/02 19:46:21;;;;;;;18.63;11.67;;;;;4.80;101695.00;;;;9627090;30;20212;-78
2023/03/02 19:51:24;;;;;;;19.07;11.27;;;;;4.70;101702.00;;;;9642619;30;20216;-79
2023/03/02 19:56:31;;;;;;;24.73;16.03;;;;;4.70;101701.00;;;;9624142;30;20588;-78
2023/03/02 20:01:34;;;;;;;23.87;13.43;;;;;4.50;101700.00;;;;9645709;30;20318;-78
2023/03/02 20:06:36;;;;;;;23.33;13.17;;;;;4.30;101703.00;;;;9635473;30;20274;-78
2023/03/02 20:11:39;;;;;;;23.93;12.63;;;;;4.10;101705.00;;;;9640411;30;20682;-79
2023/03/02 20:16:41;;;;;;;18.83;11.47;;;;;3.80;101707.00;;;;9621807;30;20617;-78
2023/03/02 20:21:43;;;;;;;19.93;12.00;;;;;3.70;101707.00;;;;9621028;30;20252;-79
2023/03/02 20:26:45;;;;;;;21.93;12.40;;;;;3.70;101713.00;;;;9645089;30;20227;-80
2023/03/02 20:31:48;;;;;;;23.33;13.13;;;;;3.60;101712.00;;;;9621554;30;20197;-79
2023/03/02 20:36:50;;;;;;;23.43;12.07;;;;;3.60;101727.00;;;;9639398;30;20653;-79
2023/03/02 20:41:53;;;;;;;19.23;11.60;;;;;3.50;101733.00;;;;9622412;30;20239;-79
2023/03/02 20:46:57;;;;;;;22.70;12.23;;;;;3.50;101730.00;;;;9633478;30;20201;-79
2023/03/02 20:52:00;;;;;;;23.33;12.73;;;;;3.30;101726.00;;;;9639352;30;20558;-79
2023/03/02 20:57:04;;;;;;;24.77;12.57;;;;;3.20;101738.00;;;;9657354;30;20196;-79
2023/03/02 21:02:07;;;;;;;21.97;13.07;;;;;3.20;101729.00;;;;9614846;30;20221;-80
2023/03/02 21:07:10;;;;;;;22.70;13.87;;;;;3.10;101741.00;;;;9606192;30;20291;-79
2023/03/02 21:12:12;;;;;;;24.30;13.10;;;;;3.00;101736.00;;;;9632319;30;20200;-80
2023/03/02 21:17:14;;;;;;;24.70;13.87;;;;;2.90;101741.00;;;;9633642;30;20216;-80
2023/03/02 21:22:16;;;;;;;23.80;13.83;;;;;2.70;101743.00;;;;9627860;30;20220;-80
2023/03/02 21:27:21;;;;;;;26.37;14.80;;;;;2.60;101747.00;;;;9614803;30;20264;-80
2023/03/02 21:32:23;;;;;;;25.53;13.90;;;;;2.40;101746.00;;;;9624177;30;20465;-79
2023/03/02 21:37:25;;;;;;;24.70;14.27;;;;;2.30;101747.00;;;;9620965;30;20212;-79
2023/03/02 21:42:29;;;;;;;26.07;13.90;;;;;2.20;101743.00;;;;9647830;30;20248;-80
2023/03/02 21:47:31;;;;;;;23.13;14.03;;;;;2.10;101748.00;;;;9639494;30;20209;-79
2023/03/02 21:52:33;;;;;;;26.63;15.20;;;;;2.10;101742.00;;;;9650713;30;20235;-79
2023/03/02 21:57:35;;;;;;;25.60;14.07;;;;;2.10;101741.00;;;;9636128;30;20242;-79
2023/03/02 22:02:38;;;;;;;24.13;14.63;;;;;2.00;101743.00;;;;9619057;30;20227;-80
2023/03/02 22:07:40;;;;;;;24.53;13.57;;;;;1.80;101749.00;;;;9637485;30;20212;-79
2023/03/02 22:12:43;;;;;;;30.17;15.53;;;;;1.60;101744.00;;;;9649797;30;20295;-79
2023/03/02 22:17:45;;;;;;;24.83;15.00;;;;;1.50;101747.00;;;;9622640;30;20867;-78
2023/03/02 22:22:52;;;;;;;24.83;15.27;;;;;1.30;101736.00;;;;9653020;30;20731;-80
2023/03/02 22:27:54;;;;;;;26.43;14.67;;;;;1.20;101738.00;;;;9645056;30;20232;-79
2023/03/02 22:32:56;;;;;;;27.03;15.33;;;;;1.10;101729.00;;;;9616729;30;20229;-79
2023/03/02 22:38:10;;;;;;;25.90;15.13;;;;;0.90;101732.00;;;;9649629;30;20212;-79
2023/03/02 22:43:30;;;;;;;30.67;15.27;;;;;0.80;101737.00;;;;9617850;30;20616;-79
2023/03/02 22:48:34;;;;;;;31.10;16.40;;;;;0.80;101735.00;;;;9641298;30;20881;-79
2023/03/02 22:53:47;;;;;;;31.70;16.27;;;;;0.80;101743.00;;;;9625252;30;20677;-80
2023/03/02 22:58:50;;;;;;;28.33;15.67;;;;;0.70;101734.00;;;;9614630;30;20233;-79
2023/03/02 23:04:00;;;;;;;30.63;17.33;;;;;0.70;101736.00;;;;9627350;30;20219;-79
2023/03/02 23:09:05;;;;;;;33.17;18.17;;;;;0.60;101744.00;;;;9604984;30;20224;-79
2023/03/02 23:14:28;;;;;;;33.50;17.37;;;;;0.70;101756.00;;;;9634151;30;20200;-79
2023/03/02 23:19:31;;;;;;;42.00;26.55;;;;;0.90;101756.00;;;;9623023;30;20474;-79
2023/03/02 23:24:33;;;;;;;34.27;19.83;;;;;0.80;101754.00;;;;9628749;30;20221;-79
2023/03/02 23:29:35;;;;;;;32.73;18.20;;;;;0.80;101753.00;;;;9641072;30;20208;-78
2023/03/02 23:34:37;;;;;;;34.07;18.10;;;;;0.80;101756.00;;;;9628486;30;20200;-79
2023/03/02 23:39:40;;;;;;;33.27;17.47;;;;;0.70;101755.00;;;;9613917;30;20208;-80
2023/03/02 23:44:42;;;;;;;32.07;18.13;;;;;0.60;101762.00;;;;9656163;30;20213;-79
2023/03/02 23:49:44;;;;;;;36.07;18.63;;;;;0.60;101763.00;;;;9641482;30;20227;-79
2023/03/02 23:54:46;;;;;;;31.67;17.97;;;;;0.50;101770.00;;;;9641870;30;20199;-79
2023/03/02 23:59:48;;;;;;;33.57;18.17;;;;;0.50;101769.00;;;;9641025;30;20232;-79
